createdAt,value
2019-03-18T00:02:20.919Z,5.40
2019-03-18T00:04:56.995Z,3.75
2019-03-18T00:07:25.513Z,2.27
2019-03-18T00:09:54.122Z,2.40
2019-03-18T00:12:22.735Z,1.00
2019-03-18T00:15:00.734Z,6.55
2019-03-18T00:17:21.717Z,2.60
2019-03-18T00:19:50.354Z,3.30
2019-03-18T00:22:19.000Z,2.62
2019-03-18T00:24:47.619Z,1.22
2019-03-18T00:27:16.208Z,1.30
2019-03-18T00:29:44.819Z,1.52
2019-03-18T00:32:13.423Z,1.90
2019-03-18T00:34:42.019Z,2.25
2019-03-18T00:37:10.628Z,3.40
2019-03-18T00:39:39.259Z,2.70
2019-03-18T00:42:07.913Z,3.42
2019-03-18T00:44:36.624Z,3.47
2019-03-18T00:47:05.159Z,1.90
2019-03-18T00:49:33.837Z,4.60
2019-03-18T00:52:02.499Z,7.62
2019-03-18T00:54:31.101Z,7.25
2019-03-18T00:56:59.752Z,3.30
2019-03-18T00:59:28.355Z,3.72
2019-03-18T01:01:56.989Z,4.58
2019-03-18T01:04:25.603Z,3.08
2019-03-18T01:06:54.220Z,5.10
2019-03-18T01:09:22.829Z,6.28
2019-03-18T01:11:51.440Z,4.00
2019-03-18T01:14:20.055Z,4.30
2019-03-18T01:16:48.706Z,3.50
2019-03-18T01:19:17.301Z,4.50
2019-03-18T01:21:45.910Z,4.60
2019-03-18T01:24:14.602Z,4.25
2019-03-18T01:26:43.301Z,5.60
2019-03-18T01:29:11.902Z,7.42
2019-03-18T01:31:40.527Z,5.22
2019-03-18T01:34:09.134Z,5.90
2019-03-18T01:36:37.795Z,4.97
2019-03-18T01:39:07.359Z,5.45
2019-03-18T01:41:35.947Z,5.90
2019-03-18T01:44:04.622Z,7.20
2019-03-18T01:46:33.311Z,6.12
2019-03-18T01:49:01.998Z,6.58
2019-03-18T01:51:30.636Z,5.03
2019-03-18T01:53:59.264Z,7.90
2019-03-18T01:56:27.850Z,7.80
2019-03-18T01:58:56.478Z,5.10
2019-03-18T02:01:25.149Z,6.85
2019-03-18T02:03:53.792Z,7.55
2019-03-18T02:06:22.388Z,6.08
2019-03-18T02:08:51.001Z,5.05
2019-03-18T02:11:19.595Z,5.20
2019-03-18T02:13:48.219Z,7.58
2019-03-18T02:16:16.814Z,10.93
2019-03-18T02:18:45.413Z,5.50
2019-03-18T02:21:14.013Z,6.30
2019-03-18T02:23:42.663Z,5.30
2019-03-18T02:26:11.300Z,6.62
2019-03-18T02:28:39.907Z,5.62
2019-03-18T02:31:08.572Z,7.45
2019-03-18T02:33:37.185Z,6.92
2019-03-18T02:36:05.795Z,4.80
2019-03-18T02:38:34.398Z,6.40
2019-03-18T02:41:03.005Z,4.95
2019-03-18T02:43:31.623Z,5.62
2019-03-18T02:46:09.792Z,6.90
2019-03-18T02:48:30.633Z,6.42
2019-03-18T02:50:59.258Z,8.00
2019-03-18T02:53:27.862Z,5.15
2019-03-18T02:55:56.483Z,7.30
2019-03-18T02:58:25.065Z,5.42
2019-03-18T03:00:53.666Z,6.75
2019-03-18T03:03:22.257Z,5.70
2019-03-18T03:05:50.881Z,8.53
2019-03-18T03:08:19.474Z,6.90
2019-03-18T03:10:48.096Z,15.75
2019-03-18T03:13:16.699Z,6.55
2019-03-18T03:15:45.393Z,6.90
2019-03-18T03:18:13.991Z,8.08
2019-03-18T03:20:42.602Z,6.55
2019-03-18T03:23:11.316Z,5.87
2019-03-18T03:25:40.334Z,8.18
2019-03-18T03:28:08.922Z,6.25
2019-03-18T03:30:37.521Z,10.23
2019-03-18T03:33:06.132Z,9.68
2019-03-18T03:35:34.714Z,9.50
2019-03-18T03:38:03.312Z,8.03
2019-03-18T03:40:31.998Z,11.43
2019-03-18T03:43:00.615Z,12.90
2019-03-18T03:45:29.288Z,8.33
2019-03-18T03:47:57.911Z,7.25
2019-03-18T03:50:26.532Z,8.23
2019-03-18T03:52:55.432Z,10.45
2019-03-18T03:55:24.009Z,7.60
2019-03-18T03:57:52.688Z,9.45
2019-03-18T04:00:21.364Z,7.97
2019-03-18T04:02:50.035Z,8.03
2019-03-18T04:05:18.621Z,8.40
2019-03-18T04:07:47.258Z,8.10
2019-03-18T04:10:15.959Z,9.95
2019-03-18T04:12:44.550Z,9.85
2019-03-18T04:15:13.240Z,9.38
2019-03-18T04:17:41.912Z,9.35
2019-03-18T04:20:10.693Z,12.58
2019-03-18T04:22:39.290Z,11.10
2019-03-18T04:25:08.264Z,9.95
2019-03-18T04:27:36.861Z,10.05
2019-03-18T04:30:06.408Z,9.40
2019-03-18T04:32:35.030Z,14.10
2019-03-18T04:35:03.791Z,9.83
2019-03-18T04:37:32.638Z,11.22
2019-03-18T04:40:01.240Z,9.53
2019-03-18T04:42:29.856Z,10.03
2019-03-18T04:44:58.490Z,8.93
2019-03-18T04:47:27.101Z,8.98
2019-03-18T04:49:55.801Z,9.45
2019-03-18T04:52:24.444Z,14.58
2019-03-18T04:54:53.353Z,13.78
2019-03-18T04:57:22.006Z,7.50
2019-03-18T04:59:50.634Z,11.38
2019-03-18T05:02:19.261Z,9.30
2019-03-18T05:04:47.892Z,10.88
2019-03-18T05:07:16.497Z,9.85
2019-03-18T05:09:45.091Z,8.40
2019-03-18T05:12:13.700Z,9.20
2019-03-18T05:14:42.317Z,9.75
2019-03-18T05:17:10.938Z,10.43
2019-03-18T05:19:39.547Z,8.08
2019-03-18T05:22:08.237Z,11.05
2019-03-18T05:24:36.825Z,9.23
2019-03-18T05:27:05.520Z,10.00
2019-03-18T05:29:34.196Z,12.33
2019-03-18T05:32:05.125Z,12.98
2019-03-18T05:34:33.214Z,12.82
2019-03-18T05:37:01.879Z,8.05
2019-03-18T05:39:30.571Z,9.68
2019-03-18T05:41:59.197Z,8.85
2019-03-18T05:44:27.794Z,7.60
2019-03-18T05:46:56.423Z,7.12
2019-03-18T05:49:40.262Z,6.17
2019-03-18T05:52:08.883Z,6.80
2019-03-18T05:54:37.500Z,7.67
2019-03-18T05:57:06.109Z,7.47
2019-03-18T05:59:34.705Z,8.25
2019-03-18T06:02:03.431Z,10.23
2019-03-18T06:04:32.094Z,7.58
2019-03-18T06:07:00.899Z,7.87
2019-03-18T06:09:29.492Z,8.58
2019-03-18T06:11:58.120Z,7.62
2019-03-18T06:14:26.745Z,10.45
2019-03-18T06:16:55.397Z,9.25
2019-03-18T06:19:24.029Z,10.70
2019-03-18T06:21:52.637Z,7.45
2019-03-18T06:24:21.252Z,9.00
2019-03-18T06:26:49.908Z,9.23
2019-03-18T06:29:18.520Z,12.10
2019-03-18T06:31:47.171Z,8.88
2019-03-18T06:34:15.788Z,9.18
2019-03-18T06:36:44.401Z,10.08
2019-03-18T06:39:13.009Z,9.28
2019-03-18T06:41:41.656Z,9.40
2019-03-18T06:44:10.232Z,10.18
2019-03-18T06:46:38.845Z,9.10
2019-03-18T06:49:07.453Z,7.75
2019-03-18T06:51:36.165Z,8.05
2019-03-18T06:54:04.868Z,8.23
2019-03-18T06:56:33.485Z,9.93
2019-03-18T06:59:02.125Z,7.97
2019-03-18T07:01:30.724Z,6.67
2019-03-18T07:03:59.338Z,7.47
2019-03-18T07:06:27.947Z,7.72
2019-03-18T07:08:56.569Z,6.20
2019-03-18T07:11:25.173Z,6.92
2019-03-18T07:13:53.799Z,14.33
2019-03-18T07:16:22.417Z,5.62
2019-03-18T07:18:51.045Z,9.53
2019-03-18T07:21:19.642Z,7.35
2019-03-18T07:23:48.250Z,7.42
2019-03-18T07:26:16.843Z,6.58
2019-03-18T07:28:45.454Z,8.90
2019-03-18T07:31:14.111Z,8.75
2019-03-18T07:33:42.711Z,6.25
2019-03-18T07:36:11.370Z,4.67
2019-03-18T07:38:40.023Z,8.00
2019-03-18T07:41:08.636Z,8.13
2019-03-18T07:43:37.258Z,5.83
2019-03-18T07:46:05.876Z,7.75
2019-03-18T07:48:34.495Z,7.92
2019-03-18T07:51:03.117Z,5.72
2019-03-18T07:53:31.921Z,6.00
2019-03-18T07:56:00.527Z,3.90
2019-03-18T07:58:29.131Z,6.20
2019-03-18T08:00:57.907Z,3.22
2019-03-18T08:03:26.752Z,9.08
2019-03-18T08:05:55.387Z,4.55
2019-03-18T08:08:23.996Z,5.83
2019-03-18T08:10:52.641Z,5.92
2019-03-18T08:13:21.365Z,7.15
2019-03-18T08:15:49.985Z,10.43
2019-03-18T08:18:18.577Z,3.50
2019-03-18T08:20:47.223Z,4.75
2019-03-18T08:23:15.854Z,2.70
2019-03-18T08:25:44.530Z,4.72
2019-03-18T08:28:13.167Z,3.75
2019-03-18T08:30:41.773Z,4.47
2019-03-18T08:33:10.398Z,3.22
2019-03-18T08:35:39.000Z,5.72
2019-03-18T08:38:07.628Z,3.12
2019-03-18T08:40:36.313Z,5.53
2019-03-18T08:43:05.002Z,4.47
2019-03-18T08:45:33.618Z,3.85
2019-03-18T08:48:02.231Z,2.98
2019-03-18T08:50:30.823Z,5.65
2019-03-18T08:52:59.475Z,4.50
2019-03-18T08:55:28.248Z,4.50
2019-03-18T08:57:56.873Z,3.15
2019-03-18T09:00:25.477Z,3.52
2019-03-18T09:02:56.341Z,2.12
2019-03-18T09:05:24.486Z,3.58
2019-03-18T09:07:53.117Z,2.15
2019-03-18T09:10:21.718Z,5.12
2019-03-18T09:12:50.381Z,2.52
2019-03-18T09:15:19.099Z,3.75
2019-03-18T09:17:47.747Z,3.20
2019-03-18T09:20:16.611Z,6.67
2019-03-18T09:22:45.230Z,2.25
2019-03-18T09:25:14.095Z,2.62
2019-03-18T09:27:42.778Z,4.08
2019-03-18T09:30:12.163Z,3.08
2019-03-18T09:32:40.744Z,2.40
2019-03-18T09:35:09.423Z,2.35
2019-03-18T09:37:38.128Z,3.05
2019-03-18T09:40:06.877Z,2.35
2019-03-18T09:42:35.472Z,3.27
2019-03-18T09:45:04.453Z,6.05
2019-03-18T09:47:33.080Z,1.60
2019-03-18T09:50:01.708Z,4.95
2019-03-18T09:52:30.378Z,5.15
2019-03-18T09:54:58.942Z,3.70
2019-03-18T09:57:27.586Z,4.42
2019-03-18T09:59:56.237Z,3.62
2019-03-18T10:02:24.854Z,2.77
2019-03-18T10:04:53.470Z,2.33
2019-03-18T10:07:22.091Z,4.17
2019-03-18T10:09:50.721Z,3.50
2019-03-18T10:12:19.426Z,2.45
2019-03-18T10:14:47.989Z,2.00
2019-03-18T10:17:16.611Z,4.75
2019-03-18T10:19:45.251Z,5.47
2019-03-18T10:22:13.925Z,4.42
2019-03-18T10:24:42.534Z,2.17
2019-03-18T10:27:11.164Z,4.12
2019-03-18T10:29:39.745Z,7.47
2019-03-18T10:32:08.380Z,3.62
2019-03-18T10:34:36.986Z,3.55
2019-03-18T10:37:05.653Z,2.35
2019-03-18T10:39:34.261Z,1.98
2019-03-18T10:42:02.943Z,1.95
2019-03-18T10:44:31.529Z,4.80
2019-03-18T10:47:00.150Z,2.55
2019-03-18T10:49:28.772Z,4.97
2019-03-18T10:51:57.449Z,1.75
2019-03-18T10:54:30.929Z,2.87
2019-03-18T10:56:56.432Z,2.83
2019-03-18T10:59:25.065Z,3.50
2019-03-18T11:01:53.721Z,1.72
2019-03-18T11:04:22.315Z,2.70
2019-03-18T11:06:51.013Z,2.10
2019-03-18T11:09:19.705Z,3.02
2019-03-18T11:11:48.346Z,6.92
2019-03-18T11:14:16.977Z,4.05
2019-03-18T11:16:45.587Z,2.98
2019-03-18T11:19:14.302Z,4.60
2019-03-18T11:21:42.939Z,1.52
2019-03-18T11:24:11.558Z,1.90
2019-03-18T11:26:40.269Z,4.70
2019-03-18T11:29:08.892Z,2.70
2019-03-18T11:31:37.539Z,1.80
2019-03-18T11:34:06.215Z,2.30
2019-03-18T11:36:34.841Z,3.02
2019-03-18T11:39:03.798Z,1.22
2019-03-18T11:41:32.470Z,1.42
2019-03-18T11:44:01.098Z,3.25
2019-03-18T11:46:29.736Z,5.75
2019-03-18T11:48:58.336Z,3.65
2019-03-18T11:51:26.946Z,2.42
2019-03-18T11:53:55.652Z,2.10
2019-03-18T11:56:24.368Z,1.62
2019-03-18T11:58:53.060Z,1.57
2019-03-18T12:01:21.674Z,2.75
2019-03-18T12:03:50.285Z,1.30
2019-03-18T12:06:18.890Z,3.15
2019-03-18T12:08:47.507Z,2.50
2019-03-18T12:11:16.109Z,1.72
2019-03-18T12:13:44.735Z,3.25
2019-03-18T12:16:13.373Z,2.15
2019-03-18T12:18:41.988Z,1.92
2019-03-18T12:21:10.595Z,2.80
2019-03-18T12:23:39.217Z,1.95
2019-03-18T12:26:07.846Z,1.80
2019-03-18T12:28:36.555Z,5.20
2019-03-18T12:31:05.150Z,1.30
2019-03-18T12:33:33.843Z,2.72
2019-03-18T12:36:02.456Z,3.72
2019-03-18T12:38:31.093Z,3.33
2019-03-18T12:40:59.802Z,3.50
2019-03-18T12:43:28.453Z,1.57
2019-03-18T12:45:57.069Z,7.00
2019-03-18T12:48:25.697Z,1.92
2019-03-18T12:50:56.377Z,3.45
2019-03-18T12:53:24.668Z,3.47
2019-03-18T12:55:53.266Z,1.98
2019-03-18T12:58:21.889Z,6.60
2019-03-18T13:00:50.630Z,3.17
2019-03-18T13:03:19.287Z,3.20
2019-03-18T13:05:47.895Z,3.60
2019-03-18T13:08:16.606Z,2.45
2019-03-18T13:10:45.258Z,2.30
2019-03-18T13:13:13.830Z,2.55
2019-03-18T13:15:42.569Z,4.92
2019-03-18T13:18:11.183Z,2.45
2019-03-18T13:20:39.904Z,3.08
2019-03-18T13:23:08.577Z,2.62
2019-03-18T13:25:37.218Z,2.37
2019-03-18T13:28:05.829Z,1.85
2019-03-18T13:30:34.467Z,1.32
2019-03-18T13:33:03.084Z,1.12
2019-03-18T13:35:31.688Z,2.67
2019-03-18T13:38:00.354Z,1.62
2019-03-18T13:40:28.978Z,1.17
2019-03-18T13:42:57.986Z,1.67
2019-03-18T13:45:26.596Z,1.62
2019-03-18T13:47:55.191Z,3.35
2019-03-18T13:50:23.886Z,4.95
2019-03-18T13:52:52.663Z,7.80
2019-03-18T13:55:21.357Z,4.17
2019-03-18T13:57:49.950Z,2.05
2019-03-18T14:00:18.723Z,2.42
2019-03-18T14:02:47.376Z,1.75
2019-03-18T14:05:16.130Z,3.35
2019-03-18T14:07:44.730Z,1.47
2019-03-18T14:10:14.138Z,2.12
2019-03-18T14:12:42.986Z,3.08
2019-03-18T14:15:13.469Z,3.90
2019-03-18T14:17:42.152Z,6.60
2019-03-18T14:20:12.504Z,2.37
2019-03-18T14:22:41.116Z,5.10
2019-03-18T14:25:10.071Z,6.05
2019-03-18T14:27:38.698Z,2.35
2019-03-18T14:30:09.922Z,4.83
2019-03-18T14:32:38.541Z,2.55
2019-03-18T14:35:07.635Z,2.35
2019-03-18T14:37:36.292Z,3.67
2019-03-18T14:40:05.951Z,1.65
2019-03-18T14:42:34.591Z,2.52
2019-03-18T14:45:03.239Z,1.70
2019-03-18T14:47:31.960Z,4.75
2019-03-18T14:50:00.621Z,2.08
2019-03-18T14:52:29.233Z,1.70
2019-03-18T14:54:57.852Z,4.58
2019-03-18T14:57:26.468Z,3.90
2019-03-18T14:59:56.366Z,3.92
2019-03-18T15:02:25.020Z,3.37
2019-03-18T15:04:53.596Z,3.00
2019-03-18T15:07:22.312Z,2.62
2019-03-18T15:09:50.908Z,3.10
2019-03-18T15:12:19.543Z,2.15
2019-03-18T15:14:48.178Z,3.00
2019-03-18T15:17:16.807Z,2.10
2019-03-18T15:19:45.417Z,3.70
2019-03-18T15:22:14.037Z,7.23
2019-03-18T15:24:42.636Z,2.37
2019-03-18T15:27:11.340Z,2.80
2019-03-18T15:29:39.955Z,3.12
2019-03-18T15:32:08.570Z,2.33
2019-03-18T15:34:37.205Z,2.10
2019-03-18T15:37:05.904Z,2.25
2019-03-18T15:39:34.485Z,1.93
2019-03-18T15:42:03.134Z,1.73
2019-03-18T15:44:31.738Z,3.17
2019-03-18T15:47:00.334Z,2.07
2019-03-18T15:49:28.923Z,2.35
2019-03-18T15:52:10.048Z,1.37
2019-03-18T15:54:27.919Z,1.00
2019-03-18T15:56:56.516Z,2.83
2019-03-18T15:59:25.281Z,1.30
2019-03-18T16:01:53.886Z,1.73
2019-03-18T16:04:21.523Z,1.80
2019-03-18T16:06:50.051Z,2.00
2019-03-18T16:09:18.691Z,2.95
2019-03-18T16:11:47.301Z,2.67
2019-03-18T16:14:15.934Z,2.95
2019-03-18T16:16:44.626Z,2.00
2019-03-18T16:19:13.541Z,2.60
2019-03-18T16:21:42.087Z,3.35
2019-03-18T16:24:10.801Z,4.55
2019-03-18T16:26:39.421Z,1.85
2019-03-18T16:29:08.038Z,2.02
2019-03-18T16:31:36.664Z,1.30
2019-03-18T16:34:05.298Z,1.60
2019-03-18T16:36:34.003Z,4.95
2019-03-18T16:39:02.723Z,2.55
2019-03-18T16:41:31.336Z,3.47
2019-03-18T16:43:59.996Z,3.12
2019-03-18T16:46:28.618Z,2.47
2019-03-18T16:48:59.896Z,4.70
2019-03-18T16:51:32.234Z,2.35
2019-03-18T16:54:06.438Z,2.80
2019-03-18T16:56:37.470Z,2.17
2019-03-18T16:59:16.311Z,2.65
2019-03-18T17:01:48.455Z,2.65
2019-03-18T17:04:18.179Z,3.83
2019-03-18T17:06:49.856Z,2.45
2019-03-18T17:09:18.871Z,3.05
2019-03-18T17:11:58.025Z,2.15
2019-03-18T17:14:27.772Z,2.25
2019-03-18T17:16:57.007Z,2.47
2019-03-18T17:19:26.744Z,1.30
2019-03-18T17:21:56.855Z,3.30
2019-03-18T17:24:27.590Z,5.20
2019-03-18T17:26:57.138Z,4.50
2019-03-18T17:29:26.966Z,2.37
2019-03-18T17:31:56.107Z,2.90
2019-03-18T17:34:24.861Z,2.87
2019-03-18T17:36:55.364Z,2.52
2019-03-18T17:39:24.997Z,3.72
2019-03-18T17:41:56.895Z,4.03
2019-03-18T17:44:25.981Z,2.47
2019-03-18T17:46:56.996Z,4.53
2019-03-18T17:49:26.156Z,4.70
2019-03-18T17:51:58.194Z,2.72
2019-03-18T17:54:27.179Z,3.67
2019-03-18T17:57:07.073Z,3.10
2019-03-18T17:59:32.930Z,4.85
2019-03-18T18:02:01.779Z,2.65
2019-03-18T18:04:30.371Z,2.10
2019-03-18T18:06:59.002Z,2.80
2019-03-18T18:09:27.599Z,6.70
2019-03-18T18:11:56.312Z,6.40
2019-03-18T18:14:24.935Z,1.75
2019-03-18T18:16:53.666Z,4.20
2019-03-18T18:19:22.271Z,11.40
2019-03-18T18:21:50.890Z,9.53
2019-03-18T18:24:19.522Z,4.58
2019-03-18T18:26:48.147Z,7.17
2019-03-18T18:29:16.784Z,6.00
2019-03-18T18:31:45.463Z,3.67
2019-03-18T18:34:14.103Z,6.45
2019-03-18T18:36:42.745Z,3.27
2019-03-18T18:39:11.351Z,3.20
2019-03-18T18:41:39.950Z,4.15
2019-03-18T18:44:08.563Z,8.43
2019-03-18T18:46:37.209Z,7.85
2019-03-18T18:49:05.847Z,8.00
2019-03-18T18:51:34.465Z,6.08
2019-03-18T18:54:03.084Z,7.83
2019-03-18T18:56:31.825Z,6.28
2019-03-18T18:59:00.539Z,8.68
2019-03-18T19:01:29.146Z,6.92
2019-03-18T19:03:57.883Z,10.28
2019-03-18T19:06:26.479Z,4.90
2019-03-18T19:08:55.086Z,3.95
2019-03-18T19:11:23.678Z,3.47
2019-03-18T19:13:52.313Z,3.47
2019-03-18T19:16:20.940Z,6.78
2019-03-18T19:18:53.398Z,5.83
2019-03-18T19:21:23.580Z,3.77
2019-03-18T19:23:54.110Z,6.75
2019-03-18T19:26:23.907Z,5.65
2019-03-18T19:28:54.482Z,4.97
2019-03-18T19:31:24.988Z,5.50
2019-03-18T19:33:56.512Z,3.50
2019-03-18T19:36:27.394Z,2.92
2019-03-18T19:38:58.395Z,5.25
2019-03-18T19:41:32.878Z,7.20
2019-03-18T19:44:05.352Z,8.25
2019-03-18T19:46:35.044Z,6.42
2019-03-18T19:49:05.754Z,5.12
2019-03-18T19:51:35.430Z,5.45
2019-03-18T19:54:04.714Z,4.80
2019-03-18T19:56:33.788Z,5.95
2019-03-18T19:59:05.099Z,13.30
2019-03-18T20:01:36.582Z,6.30
2019-03-18T20:04:07.614Z,7.85
2019-03-18T20:06:37.263Z,8.60
2019-03-18T20:09:08.197Z,2.77
2019-03-18T20:11:37.268Z,9.03
2019-03-18T20:14:09.918Z,5.37
2019-03-18T20:16:40.505Z,5.30
2019-03-18T20:19:12.610Z,3.12
2019-03-18T20:21:42.209Z,2.95
2019-03-18T20:24:10.829Z,4.50
2019-03-18T20:26:40.234Z,4.30
2019-03-18T20:29:11.854Z,6.33
2019-03-18T20:31:44.679Z,4.45
2019-03-18T20:34:17.886Z,4.50
2019-03-18T20:36:47.233Z,5.22
2019-03-18T20:39:20.916Z,5.35
2019-03-18T20:41:50.739Z,4.85
2019-03-18T20:44:23.561Z,5.78
2019-03-18T20:46:55.198Z,4.70
2019-03-18T20:49:24.299Z,4.65
2019-03-18T20:51:53.575Z,12.45
2019-03-18T20:54:24.788Z,6.70
2019-03-18T20:56:54.179Z,5.28
2019-03-18T20:59:25.540Z,7.22
2019-03-18T21:01:58.482Z,4.00
2019-03-18T21:04:29.034Z,10.63
2019-03-18T21:07:02.418Z,5.42
2019-03-18T21:09:36.324Z,5.90
2019-03-18T21:12:06.138Z,5.85
2019-03-18T21:14:35.135Z,7.95
2019-03-18T21:17:05.909Z,6.22
2019-03-18T21:19:36.389Z,14.63
2019-03-18T21:22:07.830Z,7.40
2019-03-18T21:24:36.727Z,6.95
2019-03-18T21:27:06.367Z,6.70
2019-03-18T21:29:37.107Z,4.53
2019-03-18T21:32:07.896Z,7.72
2019-03-18T21:34:38.188Z,5.03
2019-03-18T21:37:06.943Z,4.85
2019-03-18T21:39:36.295Z,5.10
2019-03-18T21:42:08.543Z,4.55
2019-03-18T21:44:38.033Z,4.80
2019-03-18T21:47:07.235Z,7.30
2019-03-18T21:49:37.177Z,6.70
2019-03-18T21:52:07.368Z,6.17
2019-03-18T21:54:38.942Z,3.65
2019-03-18T21:57:10.348Z,4.17
2019-03-18T21:59:52.070Z,4.00
2019-03-18T22:02:25.117Z,3.72
2019-03-18T22:04:57.426Z,6.78
2019-03-18T22:07:31.626Z,7.12
2019-03-18T22:10:09.826Z,4.90
2019-03-18T22:12:41.225Z,5.87
2019-03-18T22:15:11.324Z,5.58
2019-03-18T22:17:42.262Z,4.72
2019-03-18T22:20:35.507Z,6.37
2019-03-18T22:23:08.870Z,9.03
2019-03-18T22:25:38.495Z,7.78
2019-03-18T22:28:10.576Z,5.60
2019-03-18T22:30:45.184Z,3.92
2019-03-18T22:33:15.349Z,5.95
2019-03-18T22:35:48.330Z,6.35
2019-03-18T22:38:22.582Z,9.83
2019-03-18T22:40:53.983Z,3.95
2019-03-18T22:43:25.182Z,5.25
2019-03-18T22:45:53.718Z,6.80
2019-03-18T22:48:22.570Z,7.12
2019-03-18T22:50:51.318Z,7.00
2019-03-18T22:53:27.669Z,8.70
2019-03-18T22:55:59.066Z,5.37
2019-03-18T22:58:28.260Z,4.10
2019-03-18T23:01:07.023Z,4.50
2019-03-18T23:03:36.438Z,3.33
2019-03-18T23:06:07.210Z,4.45
2019-03-18T23:08:36.942Z,5.00
2019-03-18T23:11:08.758Z,4.72
2019-03-18T23:13:39.462Z,9.28
2019-03-18T23:16:15.075Z,7.53
2019-03-18T23:18:50.394Z,5.12
2019-03-18T23:21:19.648Z,9.10
2019-03-18T23:23:48.432Z,5.80
2019-03-18T23:26:18.722Z,3.95
2019-03-18T23:28:47.334Z,5.15
2019-03-18T23:31:15.985Z,9.08
2019-03-18T23:33:44.608Z,8.08
2019-03-18T23:36:13.243Z,5.40
2019-03-18T23:38:41.890Z,7.20
2019-03-18T23:41:10.528Z,6.00
2019-03-18T23:43:39.287Z,8.25
2019-03-18T23:46:07.931Z,4.67
2019-03-18T23:48:36.535Z,8.50
2019-03-18T23:51:05.130Z,9.28
2019-03-18T23:53:33.792Z,4.40
2019-03-18T23:56:02.414Z,11.15
2019-03-18T23:58:31.112Z,4.58
